createdAt,value
2022-09-20T00:01:12.963Z,5.30
2022-09-20T00:03:42.606Z,3.28
2022-09-20T00:06:14.625Z,5.38
2022-09-20T00:08:42.358Z,3.72
2022-09-20T00:11:30.922Z,4.18
2022-09-20T00:13:59.167Z,5.55
2022-09-20T00:16:28.965Z,3.35
2022-09-20T00:18:57.592Z,5.82
2022-09-20T00:21:27.724Z,4.82
2022-09-20T00:23:56.703Z,4.03
2022-09-20T00:26:24.144Z,7.90
2022-09-20T00:28:51.911Z,5.72
2022-09-20T00:31:19.310Z,4.43
2022-09-20T00:34:05.043Z,1.75
2022-09-20T00:36:31.805Z,4.57
2022-09-20T00:39:01.548Z,4.50
2022-09-20T00:41:29.646Z,5.15
2022-09-20T00:43:57.376Z,4.38
2022-09-20T00:46:37.973Z,5.72
2022-09-20T00:49:18.707Z,5.75
2022-09-20T00:51:51.150Z,2.20
2022-09-20T00:54:20.646Z,5.07
2022-09-20T00:56:48.399Z,3.55
2022-09-20T00:59:18.629Z,1.75
2022-09-20T01:01:50.833Z,2.28
2022-09-20T01:04:22.008Z,3.05
2022-09-20T01:06:51.436Z,4.22
2022-09-20T01:09:18.159Z,5.57
2022-09-20T01:11:46.320Z,5.53
2022-09-20T01:14:15.356Z,2.95
2022-09-20T01:16:42.209Z,5.82
2022-09-20T01:19:26.802Z,3.70
2022-09-20T01:21:53.909Z,2.35
2022-09-20T01:24:28.841Z,4.78
2022-09-20T01:27:03.150Z,2.63
2022-09-20T01:29:29.729Z,3.42
2022-09-20T01:32:01.467Z,5.47
2022-09-20T01:34:34.645Z,5.88
2022-09-20T01:37:10.257Z,2.63
2022-09-20T01:39:52.363Z,3.42
2022-09-20T01:42:21.685Z,7.28
2022-09-20T01:44:57.411Z,4.50
2022-09-20T01:47:58.182Z,3.28
2022-09-20T01:51:03.275Z,2.03
2022-09-20T01:53:40.669Z,4.18
2022-09-20T01:56:28.698Z,3.45
2022-09-20T01:59:48.793Z,6.40
2022-09-20T02:02:52.145Z,7.28
2022-09-20T02:05:51.136Z,3.00
2022-09-20T02:08:30.646Z,4.03
2022-09-20T02:11:11.324Z,6.67
2022-09-20T02:13:37.960Z,2.50
2022-09-20T02:16:19.943Z,1.13
2022-09-20T02:19:05.645Z,3.47
2022-09-20T02:21:51.348Z,2.15
2022-09-20T02:24:55.161Z,3.20
2022-09-20T02:27:37.208Z,3.38
2022-09-20T02:30:15.034Z,3.08
2022-09-20T02:33:14.918Z,2.97
2022-09-20T02:35:53.093Z,4.32
2022-09-20T02:38:25.517Z,3.78
2022-09-20T02:41:23.337Z,4.93
2022-09-20T02:44:07.339Z,4.10
2022-09-20T02:47:05.854Z,3.40
2022-09-20T02:49:50.916Z,6.65
2022-09-20T02:52:36.395Z,2.00
2022-09-20T02:55:11.081Z,6.90
2022-09-20T02:57:44.029Z,2.28
2022-09-20T03:00:16.779Z,7.47
2022-09-20T03:03:08.507Z,4.07
2022-09-20T03:05:57.391Z,7.28
2022-09-20T03:08:33.871Z,3.40
2022-09-20T03:11:27.837Z,6.35
2022-09-20T03:14:15.773Z,3.78
2022-09-20T03:17:02.338Z,2.72
2022-09-20T03:20:03.715Z,2.17
2022-09-20T03:22:54.639Z,4.50
2022-09-20T03:25:24.152Z,4.53
2022-09-20T03:28:11.714Z,4.90
2022-09-20T03:31:08.088Z,5.78
2022-09-20T03:33:53.117Z,5.82
2022-09-20T03:36:58.239Z,2.45
2022-09-20T03:39:46.977Z,4.32
2022-09-20T03:42:18.072Z,4.78
2022-09-20T03:45:19.563Z,4.55
2022-09-20T03:48:23.996Z,3.63
2022-09-20T03:51:23.759Z,4.38
2022-09-20T03:54:10.741Z,4.95
2022-09-20T03:56:56.419Z,3.00
2022-09-20T03:59:57.547Z,5.82
2022-09-20T04:02:50.767Z,7.05
2022-09-20T04:05:23.618Z,5.75
2022-09-20T04:08:08.398Z,7.40
2022-09-20T04:11:06.032Z,5.43
2022-09-20T04:13:37.387Z,9.93
2022-09-20T04:16:39.637Z,7.75
2022-09-20T04:19:13.376Z,5.47
2022-09-20T04:21:48.499Z,9.30
2022-09-20T04:24:43.493Z,7.03
2022-09-20T04:27:30.053Z,5.30
2022-09-20T04:30:05.476Z,4.70
2022-09-20T04:32:35.216Z,8.98
2022-09-20T04:35:48.993Z,5.80
2022-09-20T04:38:19.562Z,5.13
2022-09-20T04:41:12.090Z,3.90
2022-09-20T04:44:00.557Z,5.43
2022-09-20T04:46:45.338Z,2.95
2022-09-20T04:49:40.092Z,5.03
2022-09-20T04:52:44.439Z,10.45
2022-09-20T04:55:46.230Z,6.03
2022-09-20T04:58:37.489Z,8.30
2022-09-20T05:01:07.023Z,9.77
2022-09-20T05:03:55.801Z,3.17
2022-09-20T05:07:16.746Z,5.88
2022-09-20T05:09:46.441Z,3.42
2022-09-20T05:12:31.918Z,7.07
2022-09-20T05:15:24.169Z,7.97
2022-09-20T05:18:25.626Z,8.15
2022-09-20T05:21:14.136Z,8.32
2022-09-20T05:23:55.822Z,5.90
2022-09-20T05:26:33.029Z,5.85
2022-09-20T05:29:18.506Z,6.80
2022-09-20T05:32:23.279Z,10.32
2022-09-20T05:35:04.756Z,5.35
2022-09-20T05:37:46.483Z,5.47
2022-09-20T05:40:22.842Z,7.68
2022-09-20T05:43:02.352Z,6.32
2022-09-20T05:46:10.587Z,3.73
2022-09-20T05:48:45.561Z,7.20
2022-09-20T05:51:56.729Z,6.03
2022-09-20T05:55:08.064Z,4.75
2022-09-20T05:58:01.254Z,6.50
2022-09-20T06:00:36.013Z,5.22
2022-09-20T06:03:36.748Z,5.55
2022-09-20T06:06:18.167Z,6.50
2022-09-20T06:08:53.789Z,5.57
2022-09-20T06:11:47.709Z,10.48
2022-09-20T06:14:34.720Z,8.32
2022-09-20T06:17:19.573Z,7.47
2022-09-20T06:19:54.359Z,7.93
2022-09-20T06:22:33.225Z,5.22
2022-09-20T06:25:09.137Z,6.28
2022-09-20T06:27:43.993Z,10.80
2022-09-20T06:30:41.525Z,4.50
2022-09-20T06:33:08.569Z,7.07
2022-09-20T06:36:38.004Z,11.88
2022-09-20T06:39:41.505Z,6.28
2022-09-20T06:42:10.209Z,6.28
2022-09-20T06:44:41.246Z,12.95
2022-09-20T06:47:11.010Z,6.75
2022-09-20T06:49:39.353Z,7.15
2022-09-20T06:52:07.469Z,7.85
2022-09-20T06:54:34.502Z,9.75
2022-09-20T06:57:04.861Z,7.13
2022-09-20T07:01:58.913Z,9.93
2022-09-20T07:04:26.703Z,6.47
2022-09-20T07:07:07.338Z,8.00
2022-09-20T07:09:35.923Z,12.35
2022-09-20T07:12:02.721Z,6.07
2022-09-20T07:14:29.572Z,7.50
2022-09-20T07:16:56.270Z,9.90
2022-09-20T07:19:23.445Z,5.72
2022-09-20T07:21:50.194Z,6.68
2022-09-20T07:24:17.008Z,8.10
2022-09-20T07:27:01.984Z,7.60
2022-09-20T07:29:29.751Z,6.75
2022-09-20T07:31:56.870Z,6.68
2022-09-20T07:34:24.041Z,6.80
2022-09-20T07:36:51.394Z,7.22
2022-09-20T07:39:18.565Z,6.32
2022-09-20T07:41:48.459Z,6.90
2022-09-20T07:44:22.170Z,8.35
2022-09-20T07:46:53.924Z,8.18
2022-09-20T07:49:21.924Z,8.95
2022-09-20T07:51:49.426Z,8.07
2022-09-20T07:54:16.667Z,5.55
2022-09-20T07:56:44.809Z,7.28
2022-09-20T07:59:11.865Z,8.68
2022-09-20T08:01:40.501Z,5.78
2022-09-20T08:04:08.839Z,8.40
2022-09-20T08:06:44.052Z,8.40
2022-09-20T08:09:12.039Z,5.28
2022-09-20T08:11:40.109Z,9.57
2022-09-20T08:14:17.468Z,6.65
2022-09-20T08:16:47.320Z,11.45
2022-09-20T08:19:18.927Z,10.48
2022-09-20T08:21:45.793Z,6.63
2022-09-20T08:24:12.996Z,6.63
2022-09-20T08:26:39.680Z,8.40
2022-09-20T08:29:06.879Z,10.18
2022-09-20T08:31:36.869Z,9.05
2022-09-20T08:34:06.484Z,8.18
2022-09-20T08:36:36.967Z,11.60
2022-09-20T08:42:14.759Z,6.53
2022-09-20T08:45:01.164Z,9.40
2022-09-20T08:47:35.719Z,12.10
2022-09-20T08:50:09.784Z,14.45
2022-09-20T08:52:39.867Z,10.32
2022-09-20T08:55:16.834Z,13.27
2022-09-20T08:57:44.763Z,10.13
2022-09-20T09:00:21.078Z,6.13
2022-09-20T09:02:51.718Z,8.82
2022-09-20T09:05:33.435Z,6.47
2022-09-20T09:08:04.601Z,8.82
2022-09-20T09:10:42.600Z,7.97
2022-09-20T09:13:20.550Z,9.82
2022-09-20T09:15:53.555Z,7.60
2022-09-20T09:18:20.351Z,11.98
2022-09-20T09:20:47.507Z,7.82
2022-09-20T09:23:26.484Z,8.90
2022-09-20T09:25:55.011Z,9.65
2022-09-20T09:28:26.696Z,9.07
2022-09-20T09:31:11.473Z,6.22
2022-09-20T09:33:44.169Z,6.75
2022-09-20T09:36:15.032Z,5.35
2022-09-20T09:38:47.067Z,9.20
2022-09-20T09:41:35.280Z,4.10
2022-09-20T09:44:04.828Z,8.48
2022-09-20T09:46:33.627Z,6.55
2022-09-20T09:49:19.341Z,7.10
2022-09-20T09:52:19.638Z,7.32
2022-09-20T09:54:50.511Z,6.97
2022-09-20T09:57:26.011Z,7.35
2022-09-20T10:00:18.022Z,9.05
2022-09-20T10:02:53.650Z,3.83
2022-09-20T10:05:30.411Z,6.85
2022-09-20T10:08:31.241Z,7.50
2022-09-20T10:11:20.030Z,5.82
2022-09-20T10:14:11.352Z,8.52
2022-09-20T10:16:56.995Z,7.95
2022-09-20T10:19:50.783Z,5.20
2022-09-20T10:23:21.346Z,8.38
2022-09-20T10:25:51.216Z,9.02
2022-09-20T10:28:23.948Z,5.28
2022-09-20T10:31:07.549Z,12.27
2022-09-20T10:33:46.454Z,12.38
2022-09-20T10:36:28.494Z,5.97
2022-09-20T10:39:05.916Z,5.55
2022-09-20T10:41:57.782Z,6.60
2022-09-20T10:44:55.751Z,6.30
2022-09-20T10:47:34.153Z,10.20
2022-09-20T10:50:33.943Z,2.47
2022-09-20T10:53:09.095Z,5.00
2022-09-20T10:56:03.010Z,2.28
2022-09-20T10:58:47.197Z,4.18
2022-09-20T11:01:28.553Z,6.38
2022-09-20T11:04:21.749Z,4.57
2022-09-20T11:07:05.662Z,4.97
2022-09-20T11:09:42.241Z,5.88
2022-09-20T11:12:32.424Z,2.50
2022-09-20T11:15:04.616Z,3.58
2022-09-20T11:17:39.037Z,4.25
2022-09-20T11:20:33.282Z,1.48
2022-09-20T11:23:25.210Z,5.43
2022-09-20T11:26:04.770Z,3.05
2022-09-20T11:28:45.923Z,2.43
2022-09-20T11:31:30.860Z,0.73
2022-09-20T11:34:05.099Z,2.55
2022-09-20T11:36:39.620Z,1.02
2022-09-20T11:39:21.161Z,1.30
2022-09-20T11:41:52.145Z,3.45
2022-09-20T11:44:20.419Z,0.75
2022-09-20T11:46:52.983Z,2.50
2022-09-20T11:49:24.537Z,2.28
2022-09-20T11:51:57.761Z,1.83
2022-09-20T11:54:56.442Z,0.50
2022-09-20T11:57:24.880Z,1.80
2022-09-20T12:00:05.276Z,1.92
2022-09-20T12:04:59.310Z,2.08
2022-09-20T12:07:41.778Z,2.22
2022-09-20T12:10:24.829Z,2.35
2022-09-20T12:13:00.948Z,2.08
2022-09-20T12:15:34.575Z,1.85
2022-09-20T12:18:12.408Z,0.88
2022-09-20T12:20:39.064Z,3.00
2022-09-20T12:23:43.196Z,0.90
2022-09-20T12:26:19.088Z,1.45
2022-09-20T12:28:51.608Z,1.23
2022-09-20T12:31:32.181Z,1.15
2022-09-20T12:34:03.463Z,0.73
2022-09-20T12:36:34.212Z,1.73
2022-09-20T12:39:21.867Z,2.08
2022-09-20T12:41:56.832Z,0.60
2022-09-20T12:44:35.791Z,1.27
2022-09-20T12:47:05.955Z,1.00
2022-09-20T12:49:56.169Z,0.70
2022-09-20T12:52:53.331Z,3.58
2022-09-20T12:55:43.848Z,0.70
2022-09-20T12:58:14.293Z,1.00
2022-09-20T13:01:14.082Z,1.38
2022-09-20T13:03:44.018Z,2.22
2022-09-20T13:06:19.558Z,2.60
2022-09-20T13:09:08.528Z,1.13
2022-09-20T13:11:42.290Z,0.68
2022-09-20T13:14:22.641Z,3.17
2022-09-20T13:19:25.901Z,0.22
2022-09-20T13:22:09.345Z,1.02
2022-09-20T13:24:42.101Z,1.08
2022-09-20T13:27:19.388Z,3.33
2022-09-20T13:29:46.405Z,1.35
2022-09-20T13:32:26.766Z,1.00
2022-09-20T13:37:34.672Z,0.95
2022-09-20T13:40:02.570Z,2.05
2022-09-20T13:42:30.660Z,1.15
2022-09-20T13:44:58.803Z,1.17
2022-09-20T13:47:31.470Z,1.20
2022-09-20T13:50:28.364Z,0.93
2022-09-20T13:52:58.420Z,1.52
2022-09-20T13:55:28.770Z,1.98
2022-09-20T14:00:25.266Z,2.95
2022-09-20T14:02:54.864Z,1.67
2022-09-20T14:05:26.033Z,2.55
2022-09-20T14:07:53.614Z,0.63
2022-09-20T14:10:31.680Z,2.38
2022-09-20T14:13:08.039Z,1.30
2022-09-20T14:15:38.244Z,3.83
2022-09-20T14:18:07.308Z,1.25
2022-09-20T14:20:34.722Z,1.60
2022-09-20T14:23:01.727Z,3.03
2022-09-20T14:25:28.850Z,1.10
2022-09-20T14:28:18.679Z,0.95
2022-09-20T14:30:47.692Z,1.75
2022-09-20T14:33:18.230Z,1.83
2022-09-20T14:35:51.724Z,4.15
2022-09-20T14:38:26.318Z,2.78
2022-09-20T14:40:53.238Z,4.70
2022-09-20T14:43:32.440Z,2.05
2022-09-20T14:46:05.529Z,2.10
2022-09-20T14:48:38.130Z,5.35
2022-09-20T14:51:16.285Z,2.22
2022-09-20T14:53:44.238Z,2.38
2022-09-20T14:56:13.036Z,1.23
2022-09-20T14:59:01.541Z,0.93
2022-09-20T15:01:28.290Z,2.10
2022-09-20T15:03:57.100Z,0.82
2022-09-20T15:06:24.571Z,4.60
2022-09-20T15:08:51.328Z,3.13
2022-09-20T15:11:19.422Z,2.45
2022-09-20T15:13:46.479Z,2.92
2022-09-20T15:16:14.843Z,2.92
2022-09-20T15:18:43.363Z,2.13
2022-09-20T15:21:11.308Z,0.75
2022-09-20T15:23:39.338Z,5.90
2022-09-20T15:26:07.269Z,2.70
2022-09-20T15:28:34.583Z,2.47
2022-09-20T15:31:01.222Z,3.03
2022-09-20T15:33:30.604Z,2.00
2022-09-20T15:35:57.323Z,1.45
2022-09-20T15:38:26.715Z,0.65
2022-09-20T15:40:54.321Z,4.68
2022-09-20T15:43:24.273Z,1.73
2022-09-20T15:45:56.123Z,4.32
2022-09-20T15:48:25.486Z,0.80
2022-09-20T15:51:04.108Z,0.82
2022-09-20T15:53:35.758Z,2.08
2022-09-20T15:56:05.761Z,1.27
2022-09-20T15:58:36.192Z,1.13
2022-09-20T16:01:08.574Z,1.83
2022-09-20T16:03:36.423Z,3.38
2022-09-20T16:06:05.967Z,2.58
2022-09-20T16:08:40.943Z,1.80
2022-09-20T16:11:09.373Z,4.93
2022-09-20T16:13:38.956Z,6.50
2022-09-20T16:16:07.604Z,3.25
2022-09-20T16:18:54.750Z,3.50
2022-09-20T16:21:21.976Z,3.05
2022-09-20T16:23:51.475Z,4.13
2022-09-20T16:26:19.640Z,4.47
2022-09-20T16:28:47.797Z,2.70
2022-09-20T16:31:37.272Z,1.92
2022-09-20T16:34:05.810Z,3.03
2022-09-20T16:36:33.400Z,5.70
2022-09-20T16:39:01.124Z,4.07
2022-09-20T16:41:28.652Z,2.95
2022-09-20T16:43:56.013Z,2.90
2022-09-20T16:46:27.405Z,2.03
2022-09-20T16:49:00.970Z,3.88
2022-09-20T16:51:36.431Z,1.90
2022-09-20T16:54:12.912Z,3.10
2022-09-20T16:56:45.257Z,2.40
2022-09-20T16:59:13.853Z,2.22
2022-09-20T17:01:40.723Z,1.38
2022-09-20T17:04:08.667Z,1.10
2022-09-20T17:06:37.379Z,4.10
2022-09-20T17:09:06.091Z,3.03
2022-09-20T17:11:35.831Z,3.35
2022-09-20T17:14:02.867Z,3.72
2022-09-20T17:16:32.046Z,1.80
2022-09-20T17:19:07.355Z,2.25
2022-09-20T17:21:39.030Z,2.67
2022-09-20T17:24:07.176Z,3.78
2022-09-20T17:26:40.215Z,2.60
2022-09-20T17:29:09.759Z,6.07
2022-09-20T17:31:39.093Z,1.07
2022-09-20T17:34:09.452Z,2.60
2022-09-20T17:36:42.233Z,4.75
2022-09-20T17:39:12.037Z,2.35
2022-09-20T17:41:44.752Z,7.35
2022-09-20T17:44:12.168Z,4.75
2022-09-20T17:46:40.998Z,3.45
2022-09-20T17:49:13.019Z,3.00
2022-09-20T17:51:45.308Z,3.40
2022-09-20T17:54:15.719Z,4.38
2022-09-20T18:01:44.303Z,4.97
2022-09-20T18:04:11.282Z,7.50
2022-09-20T18:06:45.021Z,2.10
2022-09-20T18:09:17.207Z,2.75
2022-09-20T18:11:49.780Z,2.10
2022-09-20T18:14:23.192Z,6.32
2022-09-20T18:16:57.717Z,4.15
2022-09-20T18:19:24.354Z,5.38
2022-09-20T18:21:51.377Z,4.05
2022-09-20T18:24:18.055Z,4.03
2022-09-20T18:26:44.721Z,6.32
2022-09-20T18:29:17.887Z,1.73
2022-09-20T18:31:49.696Z,2.50
2022-09-20T18:34:25.416Z,3.65
2022-09-20T18:36:56.854Z,4.45
2022-09-20T18:39:25.189Z,3.03
2022-09-20T18:41:53.056Z,2.42
2022-09-20T18:44:20.819Z,3.65
2022-09-20T18:46:47.858Z,3.65
2022-09-20T18:49:16.741Z,3.28
2022-09-20T18:51:44.861Z,2.90
2022-09-20T18:54:11.920Z,4.32
2022-09-20T18:56:40.394Z,3.90
2022-09-20T18:59:13.298Z,4.20
2022-09-20T19:01:55.217Z,3.33
2022-09-20T19:05:08.489Z,3.15
2022-09-20T19:07:43.002Z,4.30
2022-09-20T19:10:21.640Z,4.15
2022-09-20T19:13:00.257Z,4.38
2022-09-20T19:15:41.928Z,2.63
2022-09-20T19:18:24.206Z,2.90
2022-09-20T19:20:58.751Z,1.90
2022-09-20T19:24:02.502Z,2.13
2022-09-20T19:26:32.427Z,5.07
2022-09-20T19:29:00.638Z,2.35
2022-09-20T19:31:30.577Z,2.03
2022-09-20T19:33:59.801Z,2.30
2022-09-20T19:37:05.612Z,4.18
2022-09-20T19:40:00.439Z,5.40
2022-09-20T19:42:38.886Z,1.90
2022-09-20T19:45:34.657Z,2.20
2022-09-20T19:48:25.759Z,2.72
2022-09-20T19:50:53.267Z,4.68
2022-09-20T19:53:27.629Z,3.22
2022-09-20T19:55:59.858Z,1.48
2022-09-20T19:58:26.873Z,6.65
2022-09-20T20:00:53.967Z,4.57
2022-09-20T20:03:23.574Z,2.88
2022-09-20T20:06:07.066Z,2.67
2022-09-20T20:08:48.789Z,1.27
2022-09-20T20:11:39.021Z,4.30
2022-09-20T20:14:08.616Z,1.33
2022-09-20T20:17:12.376Z,3.20
2022-09-20T20:20:10.303Z,2.42
2022-09-20T20:22:58.718Z,3.33
2022-09-20T20:25:35.129Z,1.20
2022-09-20T20:28:01.973Z,2.22
2022-09-20T20:30:29.730Z,3.05
2022-09-20T20:33:00.607Z,3.20
2022-09-20T20:35:27.348Z,1.63
2022-09-20T20:37:54.203Z,6.38
2022-09-20T20:40:20.975Z,2.33
2022-09-20T20:42:47.872Z,3.15
2022-09-20T20:45:14.795Z,1.67
2022-09-20T20:47:42.605Z,5.18
2022-09-20T20:50:11.911Z,3.38
2022-09-20T20:52:39.221Z,7.22
2022-09-20T20:55:06.262Z,2.58
2022-09-20T20:57:34.248Z,5.10
2022-09-20T21:00:00.951Z,4.72
2022-09-20T21:02:27.577Z,2.50
2022-09-20T21:04:54.206Z,5.63
2022-09-20T21:07:21.438Z,3.40
2022-09-20T21:09:48.051Z,1.77
2022-09-20T21:12:14.775Z,1.67
2022-09-20T21:14:41.416Z,2.97
2022-09-20T21:17:08.323Z,2.05
2022-09-20T21:19:34.911Z,3.65
2022-09-20T21:22:01.508Z,3.65
2022-09-20T21:24:28.115Z,2.83
2022-09-20T21:26:54.701Z,4.43
2022-09-20T21:29:21.345Z,2.33
2022-09-20T21:31:47.986Z,4.13
2022-09-20T21:34:15.753Z,2.92
2022-09-20T21:36:43.916Z,1.67
2022-09-20T21:39:11.316Z,3.35
2022-09-20T21:41:39.154Z,2.55
2022-09-20T21:44:07.282Z,3.17
2022-09-20T21:46:37.065Z,3.25
2022-09-20T21:49:06.104Z,5.07
2022-09-20T21:51:33.390Z,3.38
2022-09-20T21:54:01.358Z,2.08
2022-09-20T21:56:36.690Z,2.15
2022-09-20T21:59:06.209Z,1.63
2022-09-20T22:01:36.636Z,3.83
2022-09-20T22:04:11.825Z,2.80
2022-09-20T22:06:43.280Z,4.05
2022-09-20T22:09:15.083Z,2.90
2022-09-20T22:11:47.473Z,3.55
2022-09-20T22:14:16.489Z,2.03
2022-09-20T22:16:44.724Z,3.13
2022-09-20T22:19:13.741Z,4.72
2022-09-20T22:21:42.829Z,3.40
2022-09-20T22:24:11.265Z,1.88
2022-09-20T22:26:43.350Z,2.25
2022-09-20T22:29:10.779Z,4.90
2022-09-20T22:31:44.664Z,1.83
2022-09-20T22:34:14.490Z,2.92
2022-09-20T22:36:41.642Z,2.30
2022-09-20T22:39:10.811Z,6.35
2022-09-20T22:41:38.772Z,4.22
2022-09-20T22:44:06.126Z,2.08
2022-09-20T22:46:33.767Z,3.10
2022-09-20T22:49:00.469Z,1.90
2022-09-20T22:51:30.930Z,4.78
2022-09-20T22:53:57.701Z,4.53
2022-09-20T22:56:29.650Z,1.95
2022-09-20T22:59:00.072Z,1.85
2022-09-20T23:01:30.285Z,3.08
2022-09-20T23:03:58.521Z,1.52
2022-09-20T23:06:28.285Z,3.47
2022-09-20T23:08:57.661Z,3.00
2022-09-20T23:11:25.233Z,2.72
2022-09-20T23:13:57.482Z,3.67
2022-09-20T23:16:26.774Z,1.23
2022-09-20T23:18:54.355Z,3.35
2022-09-20T23:21:21.617Z,1.48
2022-09-20T23:23:53.468Z,4.68
2022-09-20T23:26:20.944Z,1.85
2022-09-20T23:28:53.918Z,1.63
2022-09-20T23:31:20.660Z,2.30
2022-09-20T23:33:52.777Z,2.95
2022-09-20T23:36:20.455Z,5.95
2022-09-20T23:38:47.826Z,5.45
2022-09-20T23:41:17.432Z,1.92
2022-09-20T23:43:44.907Z,2.67
2022-09-20T23:46:13.962Z,3.17
2022-09-20T23:48:44.226Z,1.42
2022-09-20T23:51:14.836Z,3.13
2022-09-20T23:53:42.502Z,2.25
2022-09-20T23:56:10.169Z,1.77
2022-09-20T23:58:37.638Z,2.17
